createdAt,value
2019-05-07T00:01:04.883Z,3.85
2019-05-07T00:03:33.763Z,3.86
2019-05-07T00:06:03.016Z,3.80
2019-05-07T00:08:32.255Z,3.72
2019-05-07T00:11:02.303Z,3.74
2019-05-07T00:13:33.377Z,3.66
2019-05-07T00:16:03.416Z,3.76
2019-05-07T00:18:45.691Z,3.71
2019-05-07T00:21:14.579Z,3.51
2019-05-07T00:23:43.518Z,3.52
2019-05-07T00:26:13.209Z,3.48
2019-05-07T00:28:43.250Z,4.03
2019-05-07T00:31:12.490Z,3.77
2019-05-07T00:33:43.272Z,3.83
2019-05-07T00:36:43.478Z,4.03
2019-05-07T00:39:32.864Z,3.73
2019-05-07T00:42:10.128Z,3.82
2019-05-07T00:47:33.626Z,3.81
2019-05-07T00:50:07.202Z,3.63
2019-05-07T00:52:36.000Z,3.96
2019-05-07T00:55:05.305Z,4.07
2019-05-07T00:57:34.139Z,3.92
2019-05-07T01:00:03.683Z,4.20
2019-05-07T01:02:32.542Z,4.18
2019-05-07T01:05:03.047Z,3.76
2019-05-07T01:07:32.542Z,3.54
2019-05-07T01:10:02.214Z,3.61
2019-05-07T01:12:50.366Z,3.42
2019-05-07T01:15:28.789Z,3.51
2019-05-07T01:17:52.037Z,3.35
2019-05-07T01:20:22.090Z,3.45
2019-05-07T01:22:54.320Z,3.26
2019-05-07T01:25:22.154Z,3.23
2019-05-07T01:27:53.194Z,3.34
2019-05-07T01:30:23.137Z,3.28
2019-05-07T01:33:14.538Z,3.32
2019-05-07T01:36:02.412Z,3.27
2019-05-07T01:38:33.167Z,3.20
2019-05-07T01:41:02.935Z,3.07
2019-05-07T01:43:32.241Z,3.16
2019-05-07T01:46:03.166Z,3.09
2019-05-07T01:48:47.078Z,3.11
2019-05-07T01:51:16.033Z,3.08
2019-05-07T01:53:44.983Z,2.95
2019-05-07T01:56:14.008Z,3.03
2019-05-07T01:58:44.585Z,3.14
2019-05-07T02:01:14.602Z,2.96
2019-05-07T02:03:55.628Z,2.94
2019-05-07T02:06:49.693Z,2.87
2019-05-07T02:09:27.826Z,3.02
2019-05-07T02:12:14.206Z,2.97
2019-05-07T02:14:43.045Z,2.91
2019-05-07T02:17:13.616Z,2.91
2019-05-07T02:19:54.971Z,2.99
2019-05-07T02:22:23.819Z,2.86
2019-05-07T02:24:52.732Z,2.81
2019-05-07T02:27:22.233Z,2.84
2019-05-07T02:29:52.857Z,2.81
2019-05-07T02:32:24.135Z,2.77
2019-05-07T02:34:54.418Z,2.81
2019-05-07T02:37:42.278Z,2.71
2019-05-07T02:40:22.967Z,2.74
2019-05-07T02:42:53.939Z,2.79
2019-05-07T02:45:33.393Z,2.84
2019-05-07T02:48:03.518Z,2.72
2019-05-07T02:51:06.342Z,2.56
2019-05-07T02:53:43.853Z,2.71
2019-05-07T02:56:13.333Z,2.65
2019-05-07T02:58:43.450Z,2.57
2019-05-07T03:01:13.785Z,2.48
2019-05-07T03:03:44.955Z,2.40
2019-05-07T03:06:14.234Z,2.34
2019-05-07T03:08:44.131Z,2.27
2019-05-07T03:11:14.305Z,2.34
2019-05-07T03:14:03.580Z,2.14
2019-05-07T03:16:43.504Z,2.32
2019-05-07T03:19:04.298Z,2.25
2019-05-07T03:21:53.375Z,2.49
2019-05-07T03:24:43.695Z,2.59
2019-05-07T03:27:14.163Z,2.58
2019-05-07T03:29:47.043Z,2.46
2019-05-07T03:32:29.032Z,2.42
2019-05-07T03:37:56.166Z,2.29
2019-05-07T03:40:25.027Z,2.46
2019-05-07T03:42:54.006Z,2.19
2019-05-07T03:45:33.316Z,2.54
2019-05-07T03:48:23.431Z,2.47
2019-05-07T03:51:04.120Z,2.42
2019-05-07T03:53:33.964Z,2.35
2019-05-07T03:56:04.081Z,2.41
2019-05-07T03:58:34.084Z,2.48
2019-05-07T04:01:04.460Z,2.49
2019-05-07T04:03:34.545Z,2.54
2019-05-07T04:06:04.180Z,2.65
2019-05-07T04:08:33.745Z,2.69
2019-05-07T04:11:03.843Z,2.48
2019-05-07T04:13:33.796Z,2.62
2019-05-07T04:16:15.379Z,2.62
2019-05-07T04:18:44.358Z,2.66
2019-05-07T04:21:14.178Z,2.67
2019-05-07T04:23:43.866Z,3.01
2019-05-07T04:26:34.784Z,2.97
2019-05-07T04:29:06.590Z,2.89
2019-05-07T04:31:54.641Z,3.16
2019-05-07T04:34:44.477Z,3.20
2019-05-07T04:37:13.481Z,3.58
2019-05-07T04:39:53.763Z,3.61
2019-05-07T04:42:24.433Z,3.84
2019-05-07T04:44:54.174Z,3.91
2019-05-07T04:47:34.568Z,4.15
2019-05-07T04:49:53.869Z,3.91
2019-05-07T04:52:33.416Z,3.88
2019-05-07T04:55:03.675Z,3.86
2019-05-07T04:57:32.984Z,4.09
2019-05-07T05:00:03.296Z,3.89
2019-05-07T05:02:46.323Z,4.16
2019-05-07T05:05:16.149Z,4.30
2019-05-07T05:07:45.339Z,4.57
2019-05-07T05:10:14.319Z,4.74
2019-05-07T05:12:43.255Z,4.76
2019-05-07T05:15:12.763Z,5.01
2019-05-07T05:17:50.460Z,4.91
2019-05-07T05:20:13.186Z,4.87
2019-05-07T05:23:04.880Z,5.56
2019-05-07T05:25:36.650Z,5.55
2019-05-07T05:28:05.567Z,6.34
2019-05-07T05:30:39.765Z,9.60
2019-05-07T05:33:09.485Z,10.39
2019-05-07T05:35:38.929Z,11.11
2019-05-07T05:38:12.682Z,11.43
2019-05-07T05:40:42.858Z,11.70
2019-05-07T05:43:22.380Z,11.08
2019-05-07T05:45:53.044Z,12.14
2019-05-07T05:48:22.513Z,12.51
2019-05-07T05:50:57.826Z,11.59
2019-05-07T05:53:32.898Z,12.39
2019-05-07T05:56:05.883Z,12.99
2019-05-07T05:58:43.525Z,12.46
2019-05-07T06:01:32.049Z,12.59
2019-05-07T06:04:22.734Z,13.14
2019-05-07T06:07:08.823Z,12.88
2019-05-07T06:09:45.360Z,13.86
2019-05-07T06:12:33.180Z,13.97
2019-05-07T06:15:12.657Z,14.17
2019-05-07T06:18:18.793Z,13.79
2019-05-07T06:20:57.377Z,13.69
2019-05-07T06:23:43.629Z,14.54
2019-05-07T06:26:12.852Z,14.18
2019-05-07T06:28:42.577Z,12.73
2019-05-07T06:31:14.349Z,13.88
2019-05-07T06:33:43.228Z,14.96
2019-05-07T06:36:12.700Z,13.91
2019-05-07T06:38:50.416Z,13.66
2019-05-07T06:41:36.852Z,15.25
2019-05-07T06:44:10.051Z,14.89
2019-05-07T06:46:39.073Z,16.12
2019-05-07T06:49:08.052Z,14.33
2019-05-07T06:51:36.845Z,15.27
2019-05-07T06:54:05.997Z,14.86
2019-05-07T06:56:34.816Z,15.28
2019-05-07T06:59:18.334Z,13.87
2019-05-07T07:01:59.342Z,14.12
2019-05-07T07:04:33.233Z,14.37
2019-05-07T07:07:27.520Z,12.79
2019-05-07T07:10:02.686Z,13.45
2019-05-07T07:12:33.237Z,12.40
2019-05-07T07:15:02.775Z,12.62
2019-05-07T07:17:32.740Z,13.38
2019-05-07T07:20:02.272Z,10.97
2019-05-07T07:22:31.990Z,10.37
2019-05-07T07:25:02.897Z,9.67
2019-05-07T07:27:32.358Z,9.30
2019-05-07T07:30:13.419Z,9.39
2019-05-07T07:32:45.311Z,9.98
2019-05-07T07:35:15.723Z,11.04
2019-05-07T07:37:44.511Z,10.28
2019-05-07T07:40:42.239Z,9.93
2019-05-07T07:43:12.910Z,9.76
2019-05-07T07:45:42.175Z,9.09
2019-05-07T07:48:13.181Z,9.22
2019-05-07T07:50:42.188Z,10.00
2019-05-07T07:53:13.059Z,10.77
2019-05-07T07:55:46.727Z,11.19
2019-05-07T07:58:41.925Z,12.13
2019-05-07T08:01:15.967Z,10.22
2019-05-07T08:03:44.796Z,10.22
2019-05-07T08:06:13.618Z,9.74
2019-05-07T08:08:42.571Z,9.61
2019-05-07T08:11:12.668Z,10.53
2019-05-07T08:13:42.469Z,11.24
2019-05-07T08:16:12.927Z,11.31
2019-05-07T08:18:43.561Z,11.72
2019-05-07T08:21:12.696Z,11.45
2019-05-07T08:23:42.368Z,10.92
2019-05-07T08:26:12.673Z,10.76
2019-05-07T08:28:41.993Z,11.06
2019-05-07T08:31:24.535Z,10.64
2019-05-07T08:34:09.807Z,10.12
2019-05-07T08:36:38.685Z,10.19
2019-05-07T08:39:09.140Z,10.28
2019-05-07T08:41:38.137Z,10.27
2019-05-07T08:44:12.929Z,10.52
2019-05-07T08:46:52.083Z,10.55
2019-05-07T08:49:33.324Z,10.34
2019-05-07T08:52:03.550Z,10.15
2019-05-07T08:54:32.493Z,9.77
2019-05-07T08:57:03.230Z,9.63
2019-05-07T08:59:33.257Z,10.01
2019-05-07T09:02:03.015Z,10.84
2019-05-07T09:04:32.840Z,11.21
2019-05-07T09:07:02.623Z,11.02
2019-05-07T09:09:32.619Z,11.33
2019-05-07T09:12:03.087Z,11.69
2019-05-07T09:14:32.308Z,11.82
2019-05-07T09:17:02.457Z,11.48
2019-05-07T09:19:46.865Z,11.83
2019-05-07T09:22:03.457Z,11.83
2019-05-07T09:24:33.363Z,12.35
2019-05-07T09:27:08.608Z,11.41
2019-05-07T09:29:45.593Z,11.08
2019-05-07T09:32:32.670Z,10.33
2019-05-07T09:35:02.368Z,11.08
2019-05-07T09:37:32.612Z,11.47
2019-05-07T09:40:02.827Z,10.71
2019-05-07T09:42:33.223Z,11.50
2019-05-07T09:45:02.559Z,12.16
2019-05-07T09:47:32.509Z,11.77
2019-05-07T09:50:05.529Z,12.93
2019-05-07T09:52:32.351Z,12.83
2019-05-07T09:55:11.091Z,12.85
2019-05-07T09:57:34.610Z,12.85
2019-05-07T10:00:02.507Z,12.24
2019-05-07T10:02:32.025Z,11.17
2019-05-07T10:05:02.362Z,11.05
2019-05-07T10:07:32.396Z,10.78
2019-05-07T10:10:03.240Z,10.59
2019-05-07T10:12:37.625Z,10.40
2019-05-07T10:15:07.432Z,10.34
2019-05-07T10:17:44.804Z,10.46
2019-05-07T10:20:21.872Z,11.33
2019-05-07T10:22:44.933Z,11.41
2019-05-07T10:25:14.410Z,11.71
2019-05-07T10:27:43.396Z,12.49
2019-05-07T10:30:12.998Z,11.35
2019-05-07T10:32:42.255Z,11.79
2019-05-07T10:35:12.827Z,12.34
2019-05-07T10:37:42.335Z,12.03
2019-05-07T10:40:12.353Z,13.03
2019-05-07T10:42:43.072Z,11.87
2019-05-07T10:45:38.037Z,11.08
2019-05-07T10:48:28.839Z,10.83
2019-05-07T10:50:58.225Z,10.66
2019-05-07T10:53:27.297Z,10.64
2019-05-07T10:55:56.190Z,10.66
2019-05-07T10:58:25.059Z,10.30
2019-05-07T11:00:54.946Z,10.57
2019-05-07T11:03:23.973Z,10.38
2019-05-07T11:05:52.892Z,10.30
2019-05-07T11:08:22.247Z,10.43
2019-05-07T11:10:52.155Z,10.33
2019-05-07T11:13:21.860Z,10.30
2019-05-07T11:15:53.793Z,10.70
2019-05-07T11:18:33.957Z,11.78
2019-05-07T11:21:03.160Z,12.05
2019-05-07T11:23:32.759Z,12.26
2019-05-07T11:26:02.584Z,12.00
2019-05-07T11:28:32.275Z,11.94
2019-05-07T11:31:02.030Z,11.11
2019-05-07T11:33:41.667Z,11.30
2019-05-07T11:36:10.602Z,11.19
2019-05-07T11:38:41.807Z,10.83
2019-05-07T11:41:10.353Z,10.82
2019-05-07T11:44:02.679Z,10.84
2019-05-07T11:46:59.813Z,10.73
2019-05-07T11:49:47.808Z,10.93
2019-05-07T11:52:22.826Z,10.97
2019-05-07T11:54:52.526Z,10.70
2019-05-07T11:57:22.152Z,10.45
2019-05-07T11:59:51.622Z,10.81
2019-05-07T12:02:22.626Z,10.84
2019-05-07T12:04:52.648Z,11.95
2019-05-07T12:07:22.343Z,12.03
2019-05-07T12:09:52.626Z,12.15
2019-05-07T12:12:22.172Z,12.14
2019-05-07T12:14:51.854Z,12.61
2019-05-07T12:17:22.364Z,12.72
2019-05-07T12:19:52.692Z,11.60
2019-05-07T12:22:39.215Z,11.34
2019-05-07T12:25:08.132Z,11.42
2019-05-07T12:27:37.142Z,11.27
2019-05-07T12:30:07.928Z,11.26
2019-05-07T12:32:42.837Z,11.32
2019-05-07T12:35:14.493Z,11.10
2019-05-07T12:37:46.190Z,11.06
2019-05-07T12:40:15.939Z,11.08
2019-05-07T12:42:45.702Z,11.16
2019-05-07T12:45:14.861Z,11.36
2019-05-07T12:47:44.053Z,12.42
2019-05-07T12:50:13.089Z,12.49
2019-05-07T12:53:02.186Z,13.11
2019-05-07T12:55:56.140Z,12.57
2019-05-07T12:58:25.062Z,13.02
2019-05-07T13:01:01.728Z,13.15
2019-05-07T13:03:53.255Z,13.78
2019-05-07T13:06:22.276Z,13.96
2019-05-07T13:08:52.207Z,13.03
2019-05-07T13:11:22.174Z,12.48
2019-05-07T13:13:52.747Z,13.46
2019-05-07T13:16:22.136Z,13.23
2019-05-07T13:18:52.588Z,13.24
2019-05-07T13:21:22.561Z,13.85
2019-05-07T13:23:52.088Z,13.60
2019-05-07T13:26:24.342Z,12.74
2019-05-07T13:28:53.164Z,12.24
2019-05-07T13:31:22.929Z,12.00
2019-05-07T13:33:52.489Z,11.86
2019-05-07T13:36:22.067Z,11.81
2019-05-07T13:39:08.143Z,11.59
2019-05-07T13:41:56.181Z,11.47
2019-05-07T13:44:38.603Z,11.32
2019-05-07T13:47:24.421Z,11.29
2019-05-07T13:49:53.981Z,11.17
2019-05-07T13:52:24.339Z,11.18
2019-05-07T13:54:54.201Z,11.12
2019-05-07T13:57:23.384Z,11.05
2019-05-07T13:59:53.728Z,11.25
2019-05-07T14:02:24.754Z,11.13
2019-05-07T14:04:54.717Z,11.35
2019-05-07T14:07:25.224Z,11.64
2019-05-07T14:09:54.256Z,11.64
2019-05-07T14:12:24.127Z,11.42
2019-05-07T14:14:53.642Z,11.87
2019-05-07T14:17:22.819Z,11.97
2019-05-07T14:19:53.117Z,12.25
2019-05-07T14:22:22.746Z,12.12
2019-05-07T14:24:54.489Z,11.92
2019-05-07T14:27:23.870Z,11.78
2019-05-07T14:29:54.386Z,11.85
2019-05-07T14:32:42.531Z,11.78
2019-05-07T14:35:29.313Z,12.25
2019-05-07T14:38:02.179Z,12.03
2019-05-07T14:40:32.369Z,11.85
2019-05-07T14:43:06.794Z,12.03
2019-05-07T14:45:35.757Z,12.31
2019-05-07T14:48:04.765Z,12.41
2019-05-07T14:50:33.832Z,12.26
2019-05-07T14:53:02.933Z,11.90
2019-05-07T14:55:32.452Z,11.56
2019-05-07T14:58:01.938Z,11.95
2019-05-07T15:00:30.867Z,12.62
2019-05-07T15:03:01.815Z,12.94
2019-05-07T15:05:30.431Z,12.88
2019-05-07T15:08:08.343Z,12.87
2019-05-07T15:10:30.098Z,12.96
2019-05-07T15:12:58.980Z,13.13
2019-05-07T15:15:27.926Z,13.07
2019-05-07T15:18:19.055Z,13.71
2019-05-07T15:20:47.978Z,16.97
2019-05-07T15:23:23.984Z,13.30
2019-05-07T15:25:52.864Z,12.55
2019-05-07T15:28:22.788Z,19.47
2019-05-07T15:31:07.216Z,15.22
2019-05-07T15:33:36.048Z,12.05
2019-05-07T15:36:06.628Z,11.84
2019-05-07T15:38:35.647Z,18.88
2019-05-07T15:41:04.707Z,18.66
2019-05-07T15:43:33.731Z,19.00
2019-05-07T15:46:07.544Z,20.43
2019-05-07T15:52:58.934Z,19.82
2019-05-07T15:55:28.344Z,18.98
2019-05-07T15:57:58.142Z,13.86
2019-05-07T16:00:29.295Z,13.61
2019-05-07T16:03:04.059Z,13.29
2019-05-07T16:05:32.960Z,12.80
2019-05-07T16:08:04.053Z,12.68
2019-05-07T16:10:32.450Z,12.28
2019-05-07T16:13:01.321Z,12.47
2019-05-07T16:15:34.265Z,12.00
2019-05-07T16:18:06.777Z,12.06
2019-05-07T16:20:35.760Z,12.27
2019-05-07T16:23:14.989Z,12.10
2019-05-07T16:25:35.333Z,11.91
2019-05-07T16:28:04.842Z,12.26
2019-05-07T16:30:33.909Z,12.70
2019-05-07T16:33:02.835Z,12.89
2019-05-07T16:35:32.204Z,12.33
2019-05-07T16:38:02.608Z,12.24
2019-05-07T16:40:32.266Z,12.33
2019-05-07T16:43:02.765Z,12.07
2019-05-07T16:45:32.599Z,12.08
2019-05-07T16:48:03.268Z,11.70
2019-05-07T16:50:32.763Z,12.14
2019-05-07T16:53:02.816Z,12.16
2019-05-07T16:55:36.819Z,12.34
2019-05-07T16:58:14.233Z,12.42
2019-05-07T17:00:46.061Z,12.31
2019-05-07T17:03:21.798Z,12.37
2019-05-07T17:05:52.387Z,12.30
2019-05-07T17:08:36.670Z,12.42
2019-05-07T17:11:05.610Z,12.43
2019-05-07T17:13:34.844Z,12.02
2019-05-07T17:16:04.114Z,11.70
2019-05-07T17:18:33.032Z,12.04
2019-05-07T17:21:02.285Z,12.03
2019-05-07T17:23:43.647Z,11.81
2019-05-07T17:26:06.173Z,11.75
2019-05-07T17:28:35.026Z,11.52
2019-05-07T17:31:04.075Z,11.61
2019-05-07T17:33:35.097Z,11.52
2019-05-07T17:36:04.038Z,11.64
2019-05-07T17:38:32.898Z,11.56
2019-05-07T17:41:12.498Z,11.29
2019-05-07T17:43:32.664Z,11.39
2019-05-07T17:46:02.830Z,11.27
2019-05-07T17:48:32.726Z,11.26
2019-05-07T17:51:23.818Z,10.91
2019-05-07T17:53:59.380Z,11.02
2019-05-07T17:56:24.262Z,11.05
2019-05-07T17:59:02.681Z,11.23
2019-05-07T18:01:44.747Z,10.93
2019-05-07T18:04:14.042Z,10.92
2019-05-07T18:06:42.896Z,10.92
2019-05-07T18:12:53.725Z,10.44
2019-05-07T18:15:26.617Z,10.64
2019-05-07T18:18:03.046Z,10.23
2019-05-07T18:20:32.882Z,10.23
2019-05-07T18:23:02.715Z,10.04
2019-05-07T18:25:33.401Z,9.91
2019-05-07T18:28:03.480Z,9.71
2019-05-07T18:30:49.323Z,9.55
2019-05-07T18:33:36.207Z,9.45
2019-05-07T18:36:05.554Z,9.27
2019-05-07T18:38:37.086Z,9.11
2019-05-07T18:41:06.187Z,8.97
2019-05-07T18:43:35.855Z,8.84
2019-05-07T18:46:05.048Z,8.78
2019-05-07T18:48:49.267Z,8.66
2019-05-07T18:51:18.496Z,8.65
2019-05-07T18:53:47.548Z,8.39
2019-05-07T18:56:16.522Z,8.34
2019-05-07T18:58:45.546Z,8.54
2019-05-07T19:01:16.266Z,8.30
2019-05-07T19:03:45.660Z,8.07
2019-05-07T19:06:15.199Z,8.03
2019-05-07T19:08:44.277Z,7.92
2019-05-07T19:11:13.261Z,7.85
2019-05-07T19:14:03.028Z,7.68
2019-05-07T19:16:32.524Z,7.67
2019-05-07T19:19:01.496Z,7.77
2019-05-07T19:21:31.955Z,7.67
2019-05-07T19:26:45.338Z,7.59
2019-05-07T19:32:25.617Z,7.16
2019-05-07T19:34:54.533Z,7.28
2019-05-07T19:37:23.404Z,7.24
2019-05-07T19:39:52.458Z,7.15
2019-05-07T19:42:21.606Z,7.06
2019-05-07T19:44:51.890Z,7.08
2019-05-07T19:47:23.076Z,6.95
2019-05-07T19:49:52.880Z,6.70
2019-05-07T19:52:23.114Z,6.81
2019-05-07T19:55:01.199Z,6.67
2019-05-07T19:57:26.886Z,6.51
2019-05-07T19:59:55.922Z,6.48
2019-05-07T20:02:33.133Z,6.50
2019-05-07T20:05:22.627Z,6.56
2019-05-07T20:12:02.694Z,6.54
2019-05-07T20:14:33.084Z,6.32
2019-05-07T20:17:03.624Z,6.48
2019-05-07T20:19:33.044Z,6.43
2019-05-07T20:22:02.242Z,6.48
2019-05-07T20:24:47.055Z,6.33
2019-05-07T20:27:17.125Z,6.14
2019-05-07T20:29:46.081Z,6.09
2019-05-07T20:32:15.044Z,5.99
2019-05-07T20:34:43.843Z,5.97
2019-05-07T20:37:13.014Z,6.07
2019-05-07T20:39:42.633Z,6.12
2019-05-07T20:42:12.402Z,6.09
2019-05-07T20:44:57.643Z,6.11
2019-05-07T20:54:37.664Z,6.02
2019-05-07T20:57:17.081Z,5.84
2019-05-07T20:59:43.543Z,5.97
2019-05-07T21:02:12.397Z,6.07
2019-05-07T21:04:42.470Z,5.89
2019-05-07T21:07:11.973Z,5.82
2019-05-07T21:09:42.282Z,5.90
2019-05-07T21:12:12.864Z,5.97
2019-05-07T21:14:41.917Z,5.85
2019-05-07T21:17:11.989Z,5.99
2019-05-07T21:19:42.777Z,5.88
2019-05-07T21:22:13.083Z,5.88
2019-05-07T21:24:42.286Z,6.03
2019-05-07T21:27:12.263Z,6.03
2019-05-07T21:29:42.280Z,6.07
2019-05-07T21:32:12.400Z,5.95
2019-05-07T21:34:42.112Z,5.94
2019-05-07T21:37:12.622Z,5.94
2019-05-07T21:39:42.404Z,6.08
2019-05-07T21:42:13.901Z,6.04
2019-05-07T21:44:42.985Z,6.13
2019-05-07T21:47:12.594Z,6.26
2019-05-07T21:49:43.000Z,6.17
2019-05-07T21:52:12.626Z,6.17
2019-05-07T21:54:48.352Z,6.04
2019-05-07T21:57:34.060Z,6.15
2019-05-07T22:00:33.837Z,6.13
2019-05-07T22:03:05.495Z,6.17
2019-05-07T22:05:34.440Z,6.21
2019-05-07T22:08:03.471Z,6.22
2019-05-07T22:10:32.986Z,6.16
2019-05-07T22:13:03.253Z,6.24
2019-05-07T22:15:32.462Z,6.30
2019-05-07T22:18:02.688Z,6.32
2019-05-07T22:20:32.049Z,6.17
2019-05-07T22:23:02.791Z,6.13
2019-05-07T22:25:32.838Z,6.04
2019-05-07T22:28:01.891Z,6.11
2019-05-07T22:31:02.200Z,6.09
2019-05-07T22:33:41.832Z,6.06
2019-05-07T22:36:12.676Z,5.94
2019-05-07T22:38:41.572Z,5.85
2019-05-07T22:41:12.719Z,5.69
2019-05-07T22:43:42.497Z,5.65
2019-05-07T22:46:12.476Z,5.94
2019-05-07T22:48:41.962Z,5.82
2019-05-07T22:51:12.191Z,5.97
2019-05-07T22:53:41.124Z,5.83
2019-05-07T22:56:12.017Z,5.75
2019-05-07T22:58:44.778Z,5.66
2019-05-07T23:01:13.630Z,5.69
2019-05-07T23:03:43.093Z,5.43
2019-05-07T23:06:12.363Z,5.62
2019-05-07T23:08:42.379Z,5.39
2019-05-07T23:11:12.539Z,5.31
2019-05-07T23:13:42.708Z,5.37
2019-05-07T23:16:12.712Z,5.18
2019-05-07T23:18:42.820Z,5.20
2019-05-07T23:21:11.953Z,5.19
2019-05-07T23:23:42.273Z,4.86
2019-05-07T23:26:12.274Z,4.96
2019-05-07T23:28:41.985Z,4.95
2019-05-07T23:31:12.020Z,4.98
2019-05-07T23:33:41.020Z,4.89
2019-05-07T23:36:09.819Z,4.80
2019-05-07T23:38:38.661Z,4.68
2019-05-07T23:41:17.555Z,4.74
2019-05-07T23:44:05.560Z,4.63
2019-05-07T23:46:34.411Z,4.69
2019-05-07T23:49:03.229Z,4.72
2019-05-07T23:51:32.030Z,4.72
2019-05-07T23:54:02.796Z,4.57
2019-05-07T23:56:32.888Z,4.74
2019-05-07T23:59:01.938Z,4.71
